Pagrindinis puslapis
METAR-TAF:

METAR-TAF

Oro uostai :

Liuksemburgas, Liuksemburgas

platuma: 49-37N, ilguma: 006-13E, Aukštis: 376 m

Dabartinis oras

Ataskaita buvo paskelbta 32 minutes, ne 04:20 UTC
Vėjas 8 kt iš Šiaurės Rytų
Temperatūra 11°C
Drėgmė 54%
Slėgis 1021 hPa
Matomumas 10 km arba daugiau
nėra debesų žemiau 1500 m ir nėra kamuolinių lietaus debesų

METAR: ELLX 310420Z 04008KT CAVOK 11/02 Q1021 NOSIG

Laikas: 06:52 (04:52 UTC)

Prognozė

Ataskaita buvo paskelbta 5 valandos ir 52 minutes, ne 23:00 UTC
Prognozė galioja nuo 31 metu 00 UTC su 01 metu 06 UTC
Vėjas 10 kt iš Rytų/Šiaurės Rytų
Matomumas 10 km arba daugiau
nėra debesų žemiau 1500 m ir nėra kamuolinių lietaus debesų
Laikinai
nuo 31 metu 09 UTC su 31 metu 18 UTC
Vėjas 10 kt iš Rytų su gūsio iki 23 kt

TAF: ELLX 302300Z 3100/0106 07010KT CAVOK TEMPO 3109/3118 08010G23KT

Orai ataskaitas ir orų prognozės (METAR, TAF).

turimą stotys yra geltonos ir raudonos taškus žemėlapyje.

Perkelti pele per norėdami pamatyti stoties vardą.

Tada spustelėkite, norėdami matyti oro stebėjimo ir prognozės.

Norėdami pakeisti žemėlapį: spustelėkite ant žalios mygtukų su juodo kryžiaus žemyn,; žalią mygtuką su brūkšneliu, jei norite nutolinti; arba žalių rodyklių gretimoms žemėlapius.


METAR-TAF: